Time;durP1;ratioP1;P1;durP2;ratioP2;P2;SDS_P1;SDS_P2;PMS_P1;PMS_P2;Temp;Humidity;BMP_temperature;BMP_pressure;BME280_temperature;BME280_humidity;BME280_pressure;Samples;Min_cycle;Max_cycle;Signal;HPM_P1;HPM_P2
2023/02/11 00:01:07;;;;;;;34.43;20.70;;;;;;;2.93;51.44;100837.75;7007598;28;20259;-79
2023/02/11 00:04:30;;;;;;;34.90;20.53;;;;;;;2.84;51.99;100839.22;7007973;28;20619;-79
2023/02/11 00:07:51;;;;;;;33.77;21.33;;;;;;;2.99;51.61;100862.16;7007003;28;20322;-79
2023/02/11 00:11:14;;;;;;;34.10;21.33;;;;;;;2.52;52.02;100837.97;7025632;28;20296;-79
2023/02/11 00:14:36;;;;;;;31.07;19.27;;;;;;;2.52;52.83;100837.97;7035175;28;20204;-79
2023/02/11 00:17:57;;;;;;;36.37;20.23;;;;;;;2.87;51.71;100867.47;7034719;28;20256;-79
2023/02/11 00:21:21;;;;;;;36.97;21.90;;;;;;;2.70;52.14;100841.16;7033390;28;20247;-79
2023/02/11 00:24:43;;;;;;;37.63;20.03;;;;;;;2.45;52.20;100836.69;7034835;28;20209;-79
2023/02/11 00:28:04;;;;;;;32.40;19.73;;;;;;;2.48;52.94;100849.78;7034909;28;20249;-79
2023/02/11 00:31:26;;;;;;;36.57;21.03;;;;;;;2.40;53.08;100841.47;7035133;28;20678;-79
2023/02/11 00:34:51;;;;;;;34.20;21.10;;;;;;;2.35;53.52;100854.22;7035504;28;20292;-79
2023/02/11 00:38:14;;;;;;;35.67;19.77;;;;;;;2.56;53.30;100855.44;7034737;28;20258;-79
2023/02/11 00:41:36;;;;;;;32.03;20.70;;;;;;;2.61;52.12;100850.63;7034715;28;20264;-79
2023/02/11 00:44:57;;;;;;;33.23;20.77;;;;;;;2.48;52.58;100806.34;7023286;28;20350;-79
2023/02/11 00:48:19;;;;;;;33.90;19.33;;;;;;;2.62;51.88;100787.59;7005993;28;20702;-79
2023/02/11 00:51:40;;;;;;;35.70;21.30;;;;;;;2.56;52.29;100841.25;7006879;28;20289;-78
2023/02/11 00:55:04;;;;;;;36.57;20.83;;;;;;;2.27;53.06;100824.63;7007385;28;20288;-79
2023/02/11 00:58:25;;;;;;;32.73;21.07;;;;;;;2.77;52.01;100840.63;7012009;28;20280;-79
2023/02/11 01:01:47;;;;;;;30.93;19.90;;;;;;;2.69;52.87;100840.31;7013088;28;20284;-80
2023/02/11 01:05:08;;;;;;;36.80;21.90;;;;;;;2.63;51.94;100811.44;7005457;28;20765;-80
2023/02/11 01:08:30;;;;;;;37.93;21.60;;;;;;;3.01;51.23;100824.75;7004489;28;20271;-80
2023/02/11 01:11:52;;;;;;;36.40;21.00;;;;;;;2.76;51.73;100820.28;7005037;28;20366;-80
2023/02/11 01:15:15;;;;;;;34.97;21.80;;;;;;;2.79;50.88;100811.22;7004935;28;20206;-80
2023/02/11 01:18:37;;;;;;;32.80;20.53;;;;;;;2.70;51.66;100804.72;7004716;28;20371;-80
2023/02/11 01:21:58;;;;;;;33.40;21.13;;;;;;;2.81;51.82;100793.31;7012850;28;20261;-79
2023/02/11 01:25:20;;;;;;;33.33;21.13;;;;;;;2.90;51.66;100790.03;7006625;28;20316;-79
2023/02/11 01:28:43;;;;;;;39.70;20.33;;;;;;;1.90;53.41;100793.44;7003630;28;20218;-79
2023/02/11 01:32:05;;;;;;;34.63;20.47;;;;;;;1.49;55.40;100775.88;7003914;28;20304;-79
2023/02/11 01:35:26;;;;;;;34.90;22.20;;;;;;;1.88;55.27;100794.50;7003777;28;20211;-79
2023/02/11 01:38:48;;;;;;;38.17;21.13;;;;;;;2.43;54.01;100795.16;7002978;28;20364;-79
2023/02/11 01:42:11;;;;;;;35.57;20.63;;;;;;;2.57;53.34;100803.88;7003905;28;20213;-79
2023/02/11 01:46:07;;;;;;;29.80;19.67;;;;;;;2.78;53.23;100789.06;7003484;28;20253;-79
2023/02/11 01:49:31;;;;;;;32.77;21.03;;;;;;;2.95;52.56;100802.03;6988419;28;20202;-79
2023/02/11 01:52:53;;;;;;;33.03;21.80;;;;;;;2.79;53.08;100781.94;7003981;28;20262;-79
2023/02/11 01:59:59;;;;;;;36.67;22.00;;;;;;;2.76;52.49;100798.13;7003226;28;20194;-79
2023/02/11 02:03:24;;;;;;;39.27;21.30;;;;;;;2.66;52.54;100795.25;7002943;28;20658;-79
2023/02/11 02:06:49;;;;;;;37.40;22.33;;;;;;;2.89;52.63;100783.81;7002100;28;20286;-79
2023/02/11 02:10:19;;;;;;;39.33;22.37;;;;;;;2.79;52.10;100776.59;7003511;28;20280;-79
2023/02/11 02:13:41;;;;;;;36.07;22.33;;;;;;;2.81;51.78;100759.56;7003256;28;20182;-79
2023/02/11 02:17:02;;;;;;;37.70;21.70;;;;;;;3.04;51.36;100761.44;7002335;28;20765;-79
2023/02/11 02:20:54;;;;;;;36.97;22.20;;;;;;;3.13;52.01;100774.06;7001833;28;20209;-79
2023/02/11 02:24:31;;;;;;;35.73;21.80;;;;;;;3.19;51.87;100778.13;6998809;28;20703;-79
2023/02/11 02:27:55;;;;;;;39.27;22.60;;;;;;;3.14;52.15;100778.44;7001761;28;20249;-79
2023/02/11 02:31:29;;;;;;;37.67;22.53;;;;;;;2.69;51.79;100690.31;7002353;28;20306;-79
2023/02/11 02:34:58;;;;;;;38.20;22.83;;;;;;;3.48;51.89;100772.34;7002571;28;20552;-79
2023/02/11 02:38:23;;;;;;;36.30;22.17;;;;;;;3.05;51.96;100736.47;7001713;28;20703;-79
2023/02/11 02:41:45;;;;;;;36.00;20.77;;;;;;;3.22;51.61;100757.44;7002535;28;20182;-79
2023/02/11 02:45:08;;;;;;;35.97;21.07;;;;;;;3.48;51.28;100740.38;7005245;28;20289;-79
2023/02/11 02:48:31;;;;;;;31.63;20.17;;;;;;;3.59;50.65;100712.91;7001572;28;20233;-79
2023/02/11 02:52:05;;;;;;;35.57;20.57;;;;;;;3.61;50.98;100721.66;7001568;28;20490;-79
2023/02/11 02:55:52;;;;;;;35.47;21.67;;;;;;;2.79;52.04;100643.44;7001830;28;20665;-79
2023/02/11 02:59:24;;;;;;;33.60;21.40;;;;;;;3.49;52.20;100718.06;7001423;28;20273;-78
2023/02/11 03:02:55;;;;;;;33.63;21.83;;;;;;;3.82;51.38;100722.69;7001711;28;20284;-78
2023/02/11 03:06:23;;;;;;;33.20;21.03;;;;;;;3.40;52.20;100733.91;7000233;28;20282;-79
2023/02/11 03:09:52;;;;;;;37.87;21.90;;;;;;;3.14;52.65;100729.63;7001122;28;20281;-79
2023/02/11 03:13:15;;;;;;;37.43;22.87;;;;;;;3.09;53.33;100716.66;7001120;28;20335;-79
2023/02/11 03:16:38;;;;;;;34.13;21.77;;;;;;;3.65;51.69;100707.97;7000709;28;20227;-79
2023/02/11 03:20:00;;;;;;;32.10;21.90;;;;;;;3.93;51.41;100720.06;6999598;28;20344;-79
2023/02/11 03:23:27;;;;;;;37.40;21.00;;;;;;;4.14;49.92;100707.75;7000769;28;20306;-79
2023/02/11 03:26:51;;;;;;;32.17;21.17;;;;;;;4.07;50.31;100696.69;7000386;28;20239;-79
2023/02/11 03:30:16;;;;;;;34.83;21.20;;;;;;;3.61;51.15;100674.47;7009320;28;20238;-78
2023/02/11 03:33:41;;;;;;;33.90;20.50;;;;;;;3.23;52.86;100707.63;7008716;28;20654;-78
2023/02/11 03:37:06;;;;;;;37.87;22.63;;;;;;;3.38;53.00;100710.03;7000553;28;20268;-78
2023/02/11 03:40:31;;;;;;;35.00;23.20;;;;;;;3.84;51.83;100721.59;6982768;28;20212;-78
2023/02/11 03:43:56;;;;;;;35.67;22.37;;;;;;;3.71;52.15;100691.50;7000765;28;20207;-78
2023/02/11 03:47:21;;;;;;;39.63;22.20;;;;;;;3.75;51.78;100692.09;7000009;28;20288;-78
2023/02/11 03:50:43;;;;;;;38.87;21.97;;;;;;;3.88;51.82;100706.19;7000716;28;20674;-78
2023/02/11 03:54:09;;;;;;;36.13;22.77;;;;;;;3.63;52.60;100701.91;7000765;28;20229;-78
2023/02/11 03:57:33;;;;;;;40.77;22.47;;;;;;;3.80;52.09;100712.16;7000034;28;20227;-79
2023/02/11 04:00:55;;;;;;;35.20;22.97;;;;;;;3.70;52.68;100728.94;7000477;28;20578;-78
2023/02/11 04:04:17;;;;;;;37.30;22.40;;;;;;;3.80;52.61;100713.94;7000360;28;20214;-78
2023/02/11 04:07:38;;;;;;;35.27;21.73;;;;;;;3.90;52.20;100733.66;6999571;28;20327;-78
2023/02/11 04:11:00;;;;;;;35.60;22.53;;;;;;;4.17;51.36;100724.38;7000287;28;20616;-78
2023/02/11 04:14:21;;;;;;;33.80;22.23;;;;;;;4.36;50.95;100727.31;7000554;28;20281;-78
2023/02/11 04:17:44;;;;;;;30.17;21.03;;;;;;;4.18;51.95;100722.56;6999969;28;20231;-78
2023/02/11 04:21:06;;;;;;;34.27;21.90;;;;;;;4.21;51.53;100717.84;6999509;28;20270;-78
2023/02/11 04:24:27;;;;;;;32.73;21.30;;;;;;;4.32;50.77;100720.50;7000673;28;20772;-78
2023/02/11 04:27:49;;;;;;;32.17;21.53;;;;;;;4.44;51.14;100732.94;6998877;28;20316;-78
2023/02/11 04:31:11;;;;;;;33.37;21.63;;;;;;;4.56;50.50;100701.72;7003779;28;20218;-78
2023/02/11 04:34:34;;;;;;;38.07;23.27;;;;;;;4.77;50.88;100721.41;7005604;28;20371;-79
2023/02/11 04:37:55;;;;;;;34.87;22.63;;;;;;;4.78;51.09;100734.63;7004956;28;20825;-78
2023/02/11 04:41:17;;;;;;;34.80;22.10;;;;;;;4.54;51.82;100733.88;7005184;28;20285;-78
2023/02/11 04:44:38;;;;;;;34.73;22.37;;;;;;;4.76;50.82;100723.22;7005838;28;20599;-78
2023/02/11 04:48:01;;;;;;;33.13;22.20;;;;;;;4.94;51.10;100718.19;7007942;28;20279;-78
2023/02/11 04:51:24;;;;;;;39.90;24.27;;;;;;;4.84;50.40;100709.25;7004918;28;20295;-78
2023/02/11 04:54:46;;;;;;;30.63;20.73;;;;;;;5.10;49.91;100698.16;7004569;28;20271;-78
2023/02/11 04:58:07;;;;;;;36.23;23.03;;;;;;;4.52;51.62;100708.25;7004314;28;20361;-78
2023/02/11 05:01:29;;;;;;;33.73;23.03;;;;;;;4.78;50.53;100705.22;7004722;28;20269;-78
2023/02/11 05:04:50;;;;;;;36.70;22.67;;;;;;;4.91;50.41;100697.94;7004028;28;20198;-77
2023/02/11 05:08:13;;;;;;;32.30;21.20;;;;;;;5.14;49.83;100698.75;7002928;28;20227;-78
2023/02/11 05:11:35;;;;;;;35.00;21.93;;;;;;;5.26;49.72;100681.69;7003247;28;20350;-78
2023/02/11 05:14:56;;;;;;;35.93;22.00;;;;;;;5.25;49.84;100678.16;7002645;28;20208;-78
2023/02/11 05:18:18;;;;;;;31.00;20.80;;;;;;;5.00;50.52;100681.16;7004063;28;20225;-78
2023/02/11 05:21:40;;;;;;;31.70;20.47;;;;;;;4.96;50.40;100666.31;7006032;28;20215;-78
2023/02/11 05:25:04;;;;;;;31.30;20.30;;;;;;;5.06;50.29;100656.59;7009158;28;20274;-78
2023/02/11 05:28:25;;;;;;;31.83;21.33;;;;;;;4.88;50.58;100641.19;7008166;28;20399;-78
2023/02/11 05:31:47;;;;;;;35.70;22.00;;;;;;;5.20;49.98;100642.09;7003547;28;20708;-78
2023/02/11 05:35:08;;;;;;;35.03;21.27;;;;;;;5.19;49.90;100629.69;7003220;28;20344;-79
2023/02/11 05:38:30;;;;;;;33.43;21.60;;;;;;;5.11;50.03;100618.78;7006893;28;20308;-78
2023/02/11 05:41:52;;;;;;;30.57;19.37;;;;;;;5.62;49.61;100668.81;7014420;28;20328;-78
2023/02/11 05:45:14;;;;;;;31.80;20.67;;;;;;;5.49;49.14;100675.31;7003777;28;20271;-78
2023/02/11 05:48:35;;;;;;;35.97;21.70;;;;;;;5.75;48.60;100657.88;7002678;28;20236;-78
2023/02/11 05:51:57;;;;;;;33.50;19.93;;;;;;;5.77;48.92;100651.44;7003496;28;20691;-78
2023/02/11 05:55:19;;;;;;;30.00;19.50;;;;;;;5.67;48.75;100652.34;7003429;28;20264;-79
2023/02/11 05:58:41;;;;;;;31.80;21.97;;;;;;;5.45;49.15;100617.66;7002568;28;20287;-78
2023/02/11 06:02:03;;;;;;;32.17;21.67;;;;;;;5.52;49.18;100635.75;7003162;28;20300;-78
2023/02/11 06:05:24;;;;;;;32.93;21.67;;;;;;;5.70;49.05;100639.56;7002909;28;20237;-79
2023/02/11 06:08:46;;;;;;;35.33;22.30;;;;;;;5.94;48.42;100663.41;7002147;28;20236;-79
2023/02/11 06:12:07;;;;;;;35.13;21.83;;;;;;;6.22;48.37;100673.47;7002764;28;20359;-78
2023/02/11 06:15:30;;;;;;;30.53;21.53;;;;;;;6.07;48.67;100675.63;7001668;28;20228;-79
2023/02/11 06:18:52;;;;;;;34.37;22.60;;;;;;;6.19;48.32;100682.59;7001060;28;20318;-78
2023/02/11 06:22:15;;;;;;;38.50;22.97;;;;;;;6.15;48.54;100666.94;7001770;28;20211;-79
2023/02/11 06:25:37;;;;;;;32.10;22.13;;;;;;;6.24;48.36;100668.84;7002855;28;20204;-78
2023/02/11 06:28:59;;;;;;;37.50;23.83;;;;;;;6.18;48.24;100674.72;7002762;28;20673;-79
2023/02/11 06:32:22;;;;;;;30.60;22.53;;;;;;;6.34;47.49;100686.66;7005310;28;20217;-80
2023/02/11 06:35:43;;;;;;;35.00;23.50;;;;;;;6.13;47.70;100677.78;7007162;28;20299;-78
2023/02/11 06:39:05;;;;;;;35.93;22.87;;;;;;;5.98;48.05;100668.41;7003480;28;20223;-78
2023/02/11 06:42:27;;;;;;;37.60;23.80;;;;;;;5.91;48.58;100669.91;7003704;28;20276;-78
2023/02/11 06:45:52;;;;;;;34.50;22.47;;;;;;;6.04;48.01;100670.53;7003290;28;20754;-80
2023/02/11 06:49:15;;;;;;;38.13;23.90;;;;;;;5.80;49.09;100683.34;7028904;28;20265;-79
2023/02/11 06:52:37;;;;;;;37.30;23.83;;;;;;;5.88;49.20;100671.97;7030166;28;20299;-79
2023/02/11 06:56:02;;;;;;;33.67;23.23;;;;;;;6.09;49.23;100683.53;7029683;28;20262;-80
2023/02/11 06:59:24;;;;;;;34.70;24.03;;;;;;;5.80;49.59;100695.88;7031393;28;20191;-80
2023/02/11 07:02:45;;;;;;;37.13;23.83;;;;;;;5.87;49.64;100663.09;7030633;28;20207;-79
2023/02/11 07:06:10;;;;;;;37.23;24.07;;;;;;;5.67;49.62;100690.66;7029575;28;20305;-79
2023/02/11 07:09:32;;;;;;;34.20;23.47;;;;;;;5.32;50.73;100703.41;7031385;28;20666;-79
2023/02/11 07:12:53;;;;;;;35.17;23.43;;;;;;;5.72;49.62;100684.94;7030900;28;20202;-79
2023/02/11 07:16:17;;;;;;;38.60;24.13;;;;;;;6.00;49.22;100703.03;7024586;28;20317;-78
2023/02/11 07:19:38;;;;;;;34.87;22.53;;;;;;;6.22;48.78;100677.00;7031298;28;20315;-79
2023/02/11 07:23:01;;;;;;;39.47;24.43;;;;;;;6.37;48.67;100675.66;7029835;28;20300;-80
2023/02/11 07:26:24;;;;;;;33.20;22.43;;;;;;;6.47;47.94;100673.03;7029504;28;20256;-78
2023/02/11 07:29:47;;;;;;;33.77;23.43;;;;;;;6.38;48.65;100655.91;7037263;28;20228;-78
2023/02/11 07:33:08;;;;;;;35.00;23.43;;;;;;;6.38;49.11;100663.13;7031236;28;20252;-78
2023/02/11 07:36:31;;;;;;;34.63;22.83;;;;;;;5.96;49.78;100662.31;7028957;28;20526;-77
2023/02/11 07:39:54;;;;;;;42.83;22.53;;;;;;;5.85;50.22;100657.00;7029529;28;20739;-78
2023/02/11 07:43:16;;;;;;;43.10;24.30;;;;;;;5.91;50.37;100694.00;7029594;28;20693;-78
2023/02/11 07:46:41;;;;;;;37.87;22.60;;;;;;;6.74;48.93;100679.50;7028455;28;20379;-77
2023/02/11 07:50:03;;;;;;;38.30;24.37;;;;;;;6.91;48.07;100678.88;7038156;28;20210;-78
2023/02/11 07:53:24;;;;;;;39.60;26.10;;;;;;;6.85;48.14;100676.69;7031480;28;20268;-78
2023/02/11 07:56:47;;;;;;;35.23;24.27;;;;;;;6.29;48.50;100680.84;7029428;28;20276;-78
2023/02/11 08:00:10;;;;;;;37.57;23.77;;;;;;;6.61;48.68;100670.00;7029086;28;20350;-77
2023/02/11 08:03:32;;;;;;;34.57;23.07;;;;;;;7.03;47.92;100661.69;7028615;28;20639;-78
2023/02/11 08:06:56;;;;;;;38.10;25.17;;;;;;;7.11;47.46;100661.84;7033796;28;20270;-78
2023/02/11 08:10:17;;;;;;;37.20;25.90;;;;;;;6.29;48.34;100655.88;7034407;28;20220;-78
2023/02/11 08:13:40;;;;;;;32.47;21.83;;;;;;;6.92;48.26;100666.28;7034497;28;20271;-78
2023/02/11 08:17:02;;;;;;;33.47;23.80;;;;;;;7.59;47.02;100668.09;7033752;28;20304;-78
2023/02/11 08:20:23;;;;;;;46.80;28.00;;;;;;;7.24;47.45;100666.94;7033911;28;20226;-78
2023/02/11 08:23:45;;;;;;;35.27;25.47;;;;;;;7.48;47.07;100684.31;7034115;28;20283;-78
2023/02/11 08:27:07;;;;;;;32.00;23.13;;;;;;;7.99;46.50;100681.34;7032873;28;20281;-78
2023/02/11 08:30:30;;;;;;;34.07;22.00;;;;;;;8.23;45.61;100693.38;7034266;28;20237;-78
2023/02/11 08:33:53;;;;;;;33.17;22.70;;;;;;;8.02;45.83;100689.13;7034412;28;20754;-78
2023/02/11 08:37:14;;;;;;;39.03;24.47;;;;;;;8.63;45.11;100671.59;7033570;28;20284;-78
2023/02/11 08:40:36;;;;;;;30.80;22.30;;;;;;;8.87;44.05;100675.47;7034386;28;20261;-78
2023/02/11 08:43:58;;;;;;;27.53;18.40;;;;;;;8.89;43.31;100686.09;7033501;28;20679;-78
2023/02/11 08:47:21;;;;;;;27.43;19.37;;;;;;;8.79;42.77;100669.97;7034117;28;20831;-78
2023/02/11 08:50:42;;;;;;;26.13;18.00;;;;;;;8.63;43.27;100650.94;7034323;28;20205;-78
2023/02/11 08:54:08;;;;;;;25.20;16.80;;;;;;;9.68;42.33;100630.41;7033794;28;20302;-78
2023/02/11 08:57:29;;;;;;;24.03;15.90;;;;;;;13.28;34.78;100622.91;7032964;28;20311;-78
2023/02/11 09:00:51;;;;;;;22.57;15.70;;;;;;;14.75;31.78;100643.00;7034061;28;20732;-78
2023/02/11 09:04:14;;;;;;;22.77;15.33;;;;;;;13.86;32.10;100644.06;7033140;28;20240;-78
2023/02/11 09:07:35;;;;;;;21.43;14.97;;;;;;;13.36;32.71;100658.13;7032437;28;20261;-78
2023/02/11 09:10:57;;;;;;;21.10;15.60;;;;;;;12.61;33.76;100657.88;7033465;28;20232;-78
2023/02/11 09:14:21;;;;;;;21.53;15.97;;;;;;;11.93;35.69;100665.56;7033290;28;20345;-78
2023/02/11 09:17:42;;;;;;;24.47;15.67;;;;;;;12.85;34.26;100655.09;7025364;28;20316;-78
2023/02/11 09:21:10;;;;;;;23.67;15.87;;;;;;;13.74;33.27;100640.09;7032263;28;20576;-78
2023/02/11 09:24:32;;;;;;;21.97;15.67;;;;;;;13.41;33.72;100623.22;7033187;28;20188;-78
2023/02/11 09:27:53;;;;;;;22.33;15.53;;;;;;;12.73;34.94;100638.38;7031849;28;20756;-78
2023/02/11 09:31:16;;;;;;;18.03;13.47;;;;;;;12.35;35.47;100628.38;7032427;28;20294;-78
2023/02/11 09:34:38;;;;;;;15.83;12.63;;;;;;;12.49;35.61;100619.53;7032525;28;20643;-78
2023/02/11 09:38:01;;;;;;;16.63;12.47;;;;;;;12.12;36.46;100626.53;7032059;28;20281;-78
2023/02/11 09:41:35;;;;;;;18.57;13.20;;;;;;;12.61;35.97;100623.53;7032383;28;20345;-78
2023/02/11 09:44:59;;;;;;;19.80;13.00;;;;;;;12.08;35.55;100592.72;7032097;28;20245;-78
2023/02/11 09:48:21;;;;;;;16.80;11.80;;;;;;;12.18;36.93;100628.53;7031245;28;20236;-79
2023/02/11 09:51:47;;;;;;;18.90;12.77;;;;;;;12.69;36.54;100636.22;7032161;28;20291;-78
2023/02/11 09:55:18;;;;;;;14.50;11.00;;;;;;;12.74;35.28;100640.06;7032278;28;20201;-78
2023/02/11 09:58:41;;;;;;;15.33;12.13;;;;;;;11.99;36.95;100648.66;7031707;28;20243;-78
2023/02/11 10:02:06;;;;;;;19.83;13.67;;;;;;;11.39;38.12;100668.00;7041426;28;20297;-78
2023/02/11 10:05:54;;;;;;;23.27;15.17;;;;;;;11.16;39.07;100672.31;7032158;28;20657;-78
2023/02/11 10:09:32;;;;;;;17.77;13.93;;;;;;;11.12;39.46;100652.91;7031592;28;20299;-78
2023/02/11 10:13:08;;;;;;;17.33;12.93;;;;;;;11.57;38.33;100661.44;7032564;28;20342;-78
2023/02/11 10:16:43;;;;;;;20.83;12.50;;;;;;;11.68;37.85;100655.75;7035309;28;20278;-78
2023/02/11 10:20:21;;;;;;;18.10;13.67;;;;;;;11.48;37.92;100646.25;7031833;28;20815;-78
2023/02/11 10:23:45;;;;;;;16.93;12.73;;;;;;;12.64;37.28;100657.53;7031595;28;20290;-78
2023/02/11 10:27:15;;;;;;;15.70;12.60;;;;;;;13.16;35.87;100664.16;7030717;28;20317;-78
2023/02/11 10:30:42;;;;;;;15.13;10.43;;;;;;;13.23;36.18;100659.72;7031007;28;20672;-78
2023/02/11 10:34:05;;;;;;;13.80;10.97;;;;;;;12.99;35.89;100630.84;7031327;28;20247;-78
2023/02/11 10:37:27;;;;;;;16.97;11.23;;;;;;;13.80;35.04;100650.19;7030738;28;20224;-78
2023/02/11 10:40:48;;;;;;;13.20;9.77;;;;;;;14.20;33.92;100634.44;7030790;28;20311;-78
2023/02/11 10:44:19;;;;;;;17.53;11.07;;;;;;;12.91;35.06;100619.19;7031026;28;20301;-79
2023/02/11 10:47:42;;;;;;;13.23;10.80;;;;;;;13.81;34.71;100641.03;7030359;28;20715;-78
2023/02/11 10:51:09;;;;;;;12.37;9.40;;;;;;;13.14;34.94;100582.22;7030296;28;20270;-78
2023/02/11 10:54:30;;;;;;;12.27;9.10;;;;;;;12.63;36.49;100623.38;7030603;28;20678;-78
2023/02/11 10:57:56;;;;;;;13.70;10.47;;;;;;;13.84;35.06;100617.13;7029525;28;20277;-78
2023/02/11 11:01:18;;;;;;;12.23;8.77;;;;;;;13.87;35.56;100619.44;7030519;28;20780;-78
2023/02/11 11:04:43;;;;;;;13.83;9.57;;;;;;;14.03;35.00;100610.31;7030660;28;20285;-78
2023/02/11 11:08:07;;;;;;;11.70;8.43;;;;;;;13.57;36.02;100608.69;7030357;28;20229;-79
2023/02/11 11:11:29;;;;;;;13.67;10.00;;;;;;;14.71;34.07;100606.44;7031095;28;20209;-78
2023/02/11 11:14:54;;;;;;;11.80;9.80;;;;;;;12.57;36.88;100599.72;7030253;28;20235;-78
2023/02/11 11:18:17;;;;;;;13.07;9.43;;;;;;;13.44;35.41;100540.69;7021672;28;20313;-78
2023/02/11 11:21:43;;;;;;;10.67;8.27;;;;;;;13.86;34.89;100592.53;7000946;28;20252;-78
2023/02/11 11:25:05;;;;;;;9.27;7.80;;;;;;;13.32;36.21;100583.63;7002098;28;20190;-78
2023/02/11 11:28:29;;;;;;;12.27;9.13;;;;;;;13.24;36.37;100604.50;7001267;28;20321;-78
2023/02/11 11:31:53;;;;;;;11.03;9.40;;;;;;;13.94;35.30;100590.59;7001936;28;20278;-78
2023/02/11 11:35:23;;;;;;;14.07;9.63;;;;;;;13.08;36.08;100599.16;7002405;28;20256;-78
2023/02/11 11:38:50;;;;;;;12.77;9.87;;;;;;;12.50;37.68;100588.75;7001247;28;20663;-78
2023/02/11 11:42:25;;;;;;;17.23;9.57;;;;;;;12.97;36.62;100591.44;7002316;28;20199;-78
2023/02/11 11:45:54;;;;;;;12.07;9.40;;;;;;;13.40;36.75;100582.72;7001814;28;20191;-78
2023/02/11 11:49:22;;;;;;;14.77;9.93;;;;;;;13.86;35.69;100595.25;7001951;28;20797;-79
2023/02/11 11:52:46;;;;;;;12.07;9.63;;;;;;;12.95;36.96;100585.34;7002328;28;20239;-78
2023/02/11 11:56:13;;;;;;;13.93;9.93;;;;;;;13.17;37.00;100581.88;7001858;28;20229;-78
2023/02/11 11:59:35;;;;;;;13.40;8.90;;;;;;;13.88;35.40;100585.91;7005752;28;20737;-79
2023/02/11 12:03:27;;;;;;;12.13;9.40;;;;;;;14.20;35.72;100582.91;7003825;28;20215;-78
2023/02/11 12:07:00;;;;;;;14.23;9.43;;;;;;;15.58;32.77;100573.63;7001429;28;20310;-78
2023/02/11 12:10:31;;;;;;;10.20;8.57;;;;;;;15.19;33.88;100575.91;7001880;28;20692;-78
2023/02/11 12:14:09;;;;;;;12.10;9.60;;;;;;;14.94;34.08;100582.72;7008289;28;20324;-78
2023/02/11 12:17:40;;;;;;;13.00;9.27;;;;;;;15.64;33.19;100572.00;7001885;28;20231;-78
2023/02/11 12:21:13;;;;;;;10.77;8.33;;;;;;;13.44;36.73;100587.59;7001802;28;20351;-78
2023/02/11 12:24:49;;;;;;;10.47;8.43;;;;;;;13.64;36.91;100579.84;7002076;28;20317;-78
2023/02/11 12:28:22;;;;;;;12.53;8.27;;;;;;;14.03;36.26;100585.91;7001362;28;20276;-78
2023/02/11 12:31:54;;;;;;;15.60;9.27;;;;;;;14.03;36.12;100596.75;7001813;28;20244;-79
2023/02/11 12:35:25;;;;;;;13.67;8.93;;;;;;;13.93;37.06;100588.88;7002140;28;20194;-78
2023/02/11 12:39:01;;;;;;;8.87;7.40;;;;;;;13.85;37.63;100586.25;7000781;28;20282;-78
2023/02/11 12:46:38;;;;;;;10.23;7.40;;;;;;;14.05;37.74;100589.31;7001779;28;20222;-79
2023/02/11 12:50:11;;;;;;;11.47;7.43;;;;;;;13.09;39.47;100576.50;7002406;28;20266;-79
2023/02/11 12:53:44;;;;;;;8.93;7.67;;;;;;;13.38;39.62;100590.19;7007412;28;20354;-79
2023/02/11 12:57:09;;;;;;;12.93;8.07;;;;;;;13.65;38.36;100549.00;7006702;28;20366;-79
2023/02/11 13:00:38;;;;;;;9.43;8.07;;;;;;;13.42;39.43;100565.28;7007063;28;20590;-79
2023/02/11 13:04:07;;;;;;;11.00;8.40;;;;;;;13.84;38.65;100560.19;7007952;28;20298;-79
2023/02/11 13:07:33;;;;;;;12.23;9.60;;;;;;;14.09;38.13;100511.97;7008327;28;20226;-80
2023/02/11 13:10:57;;;;;;;12.30;10.70;;;;;;;13.97;39.25;100551.38;7014033;28;20254;-79
2023/02/11 13:14:31;;;;;;;10.57;8.47;;;;;;;14.11;38.69;100540.56;7016264;28;20237;-80
2023/02/11 13:17:58;;;;;;;11.77;9.27;;;;;;;14.04;38.50;100526.06;7016718;28;20313;-79
2023/02/11 13:21:29;;;;;;;15.93;10.60;;;;;;;13.11;40.89;100526.53;7016601;28;20210;-80
2023/02/11 13:24:58;;;;;;;14.53;11.17;;;;;;;14.13;39.75;100538.53;7018467;28;20232;-80
2023/02/11 13:28:28;;;;;;;15.57;11.53;;;;;;;13.20;41.17;100532.72;7015281;28;20324;-80
2023/02/11 13:31:54;;;;;;;17.43;11.67;;;;;;;13.20;41.23;100532.72;7010638;28;20229;-79
2023/02/11 13:35:28;;;;;;;16.77;11.90;;;;;;;13.11;41.92;100550.06;7010585;28;20208;-80
2023/02/11 13:38:58;;;;;;;19.47;12.17;;;;;;;13.87;40.42;100537.28;7009420;28;20701;-80
2023/02/11 13:42:21;;;;;;;17.83;11.60;;;;;;;13.07;42.08;100544.19;7011819;28;20215;-80
2023/02/11 13:45:44;;;;;;;18.13;12.80;;;;;;;12.76;42.45;100504.56;7014909;28;20236;-80
2023/02/11 13:49:06;;;;;;;17.60;12.93;;;;;;;12.98;42.83;100536.28;7015730;28;20271;-80
2023/02/11 13:52:29;;;;;;;18.73;12.80;;;;;;;13.06;42.69;100545.22;7017037;28;20202;-80
2023/02/11 13:55:54;;;;;;;16.23;11.80;;;;;;;13.59;40.95;100518.06;7014841;28;20221;-80
2023/02/11 13:59:47;;;;;;;17.87;13.07;;;;;;;14.22;40.13;100526.56;7010714;28;20268;-80
2023/02/11 14:11:50;;;;;;;16.63;11.40;;;;;;;14.85;39.24;100528.66;7011078;28;20230;-78
2023/02/11 14:15:21;;;;;;;16.23;11.33;;;;;;;14.82;39.14;100515.47;7012233;28;20200;-78
2023/02/11 14:19:01;;;;;;;19.90;12.23;;;;;;;14.81;38.90;100525.50;7011997;28;20226;-78
2023/02/11 14:22:27;;;;;;;17.47;11.20;;;;;;;14.35;39.77;100521.34;7011394;28;20208;-78
2023/02/11 14:25:56;;;;;;;17.57;12.03;;;;;;;14.79;39.65;100513.13;7009968;28;20186;-78
2023/02/11 14:29:24;;;;;;;18.07;12.20;;;;;;;14.89;38.81;100519.09;7007077;28;20226;-78
2023/02/11 14:32:57;;;;;;;16.23;12.43;;;;;;;14.58;39.66;100532.09;7008618;28;20186;-78
2023/02/11 14:36:33;;;;;;;17.83;12.27;;;;;;;14.72;39.22;100525.78;7009000;28;20312;-77
2023/02/11 14:40:10;;;;;;;18.97;13.57;;;;;;;14.96;38.34;100488.28;7009747;28;20314;-77
2023/02/11 14:43:36;;;;;;;15.60;10.90;;;;;;;14.93;38.18;100523.97;7009500;28;20208;-78
2023/02/11 14:46:58;;;;;;;16.90;11.73;;;;;;;14.71;38.60;100492.38;7009503;28;20309;-77
2023/02/11 14:50:24;;;;;;;15.47;11.50;;;;;;;14.23;39.34;100522.00;7010540;28;20316;-77
2023/02/11 14:53:49;;;;;;;17.97;13.03;;;;;;;14.58;39.25;100532.91;7010878;28;20200;-78
2023/02/11 14:57:13;;;;;;;16.57;12.27;;;;;;;14.10;40.49;100538.88;7010060;28;20708;-78
2023/02/11 15:00:35;;;;;;;19.30;13.40;;;;;;;14.16;40.63;100542.75;7010794;28;20286;-78
2023/02/11 15:03:58;;;;;;;18.67;12.80;;;;;;;14.55;39.78;100540.59;7011467;28;20321;-78
2023/02/11 15:07:21;;;;;;;15.80;12.70;;;;;;;14.48;39.81;100543.25;7010572;28;20224;-78
2023/02/11 15:10:44;;;;;;;16.57;13.60;;;;;;;14.54;39.37;100525.34;7010912;28;20263;-78
2023/02/11 15:14:09;;;;;;;15.27;12.30;;;;;;;14.29;40.17;100543.78;7010707;28;20207;-78
2023/02/11 15:17:31;;;;;;;18.13;13.97;;;;;;;14.31;39.69;100530.03;7012550;28;20256;-78
2023/02/11 15:20:54;;;;;;;14.83;12.70;;;;;;;13.80;39.78;100529.03;7008546;28;20210;-78
2023/02/11 15:24:26;;;;;;;16.60;12.13;;;;;;;14.08;39.45;100538.22;7010137;28;20198;-78
2023/02/11 15:27:49;;;;;;;17.17;12.90;;;;;;;13.63;40.27;100526.66;7009686;28;20251;-78
2023/02/11 15:31:14;;;;;;;15.00;12.13;;;;;;;13.32;40.38;100542.97;7010392;28;20448;-77
2023/02/11 15:34:36;;;;;;;16.67;11.73;;;;;;;13.23;40.44;100529.69;7010019;28;20359;-77
2023/02/11 15:37:58;;;;;;;16.30;12.17;;;;;;;13.76;39.68;100556.69;7008534;28;20226;-77
2023/02/11 15:41:45;;;;;;;13.90;11.30;;;;;;;13.09;40.26;100560.25;7011017;28;20214;-80
2023/02/11 15:45:17;;;;;;;16.10;10.97;;;;;;;13.36;40.50;100554.31;6984748;28;20233;-80
2023/02/11 15:48:43;;;;;;;17.70;11.37;;;;;;;12.62;41.59;100525.09;7007146;28;20238;-80
2023/02/11 15:52:04;;;;;;;16.10;11.83;;;;;;;13.21;41.10;100573.19;7008623;28;20199;-80
2023/02/11 15:55:26;;;;;;;14.93;11.13;;;;;;;12.81;41.92;100550.91;7007475;28;20229;-80